Terminal Aerodrome Forecast
Issued by NWS Bismarck, ND

Home | Current Version | Previous Version | Text Only | Print | Product List | Glossary Off
Versions: 1 2 3 4 5 6 7 8 9 10 11 12 13 14 15 16 17 18

000
FTUS43 KBIS 262300
TAFBIS
TAF
KBIS 262339Z 2700/2724 30020G28KT P6SM SCT070
     FM270300 31010KT P6SM FEW080
     FM270600 31010KT P6SM SCT040
     FM271500 34011KT P6SM SCT035
     FM271800 35012KT P6SM SCT250=

USA.gov is the U.S. government's official web portal to all federal, state and local government web resources and services.